Time;durP1;ratioP1;P1;durP2;ratioP2;P2;SDS_P1;SDS_P2;PMS_P1;PMS_P2;Temp;Humidity;BMP_temperature;BMP_pressure;BME280_temperature;BME280_humidity;BME280_pressure;Samples;Min_cycle;Max_cycle;Signal;HPM_P1;HPM_P2
2022/02/14 00:00:06;;;;;;;4.80;4.30;;;2.20;97.90;;;;;;5069373;28;20210;-72
2022/02/14 00:02:33;;;;;;;5.07;4.10;;;2.30;97.50;;;;;;5069082;28;20621;-71
2022/02/14 00:05:02;;;;;;;4.38;3.67;;;2.40;97.30;;;;;;5068754;28;20232;-71
2022/02/14 00:07:29;;;;;;;5.78;3.90;;;2.60;97.20;;;;;;5069123;28;20698;-71
2022/02/14 00:09:57;;;;;;;7.50;3.85;;;2.70;97.00;;;;;;5068791;28;20200;-72
2022/02/14 00:12:24;;;;;;;4.13;3.72;;;2.80;97.10;;;;;;5068615;28;20199;-71
2022/02/14 00:14:51;;;;;;;5.97;3.85;;;2.80;97.10;;;;;;5068826;28;20204;-69
2022/02/14 00:17:18;;;;;;;4.10;3.70;;;2.70;97.50;;;;;;5069022;28;20220;-70
2022/02/14 00:19:49;;;;;;;5.68;4.03;;;2.70;97.40;;;;;;5068813;28;20208;-70
2022/02/14 00:22:17;;;;;;;7.97;3.80;;;2.60;97.60;;;;;;5068133;28;20208;-70
2022/02/14 00:24:44;;;;;;;5.13;3.80;;;2.50;97.20;;;;;;5069055;28;20228;-70
2022/02/14 00:27:12;;;;;;;3.80;3.35;;;2.50;97.80;;;;;;5068506;28;20255;-70
2022/02/14 00:29:39;;;;;;;4.03;3.63;;;2.40;98.30;;;;;;5068988;28;20211;-70
2022/02/14 00:32:06;;;;;;;6.85;4.07;;;2.40;98.50;;;;;;5068788;28;20211;-70
2022/02/14 00:34:33;;;;;;;4.32;3.78;;;2.20;99.00;;;;;;5068834;28;20204;-71
2022/02/14 00:36:59;;;;;;;5.35;3.70;;;2.10;99.20;;;;;;5069131;28;20243;-71
2022/02/14 00:39:26;;;;;;;3.80;3.40;;;2.00;99.30;;;;;;5068859;28;20204;-71
2022/02/14 00:41:53;;;;;;;4.05;3.40;;;1.90;99.50;;;;;;5068744;28;20196;-71
2022/02/14 00:44:21;;;;;;;5.35;3.83;;;1.80;99.50;;;;;;5068193;28;20204;-71
2022/02/14 00:46:48;;;;;;;4.38;3.53;;;1.80;99.90;;;;;;5068326;28;20224;-71
2022/02/14 00:49:14;;;;;;;4.82;3.95;;;1.70;99.90;;;;;;5068387;28;20204;-70
2022/02/14 00:51:41;;;;;;;8.27;3.70;;;1.70;99.90;;;;;;5068150;28;20211;-71
2022/02/14 00:54:08;;;;;;;5.68;3.80;;;1.70;99.90;;;;;;5066917;28;20208;-71
2022/02/14 00:56:35;;;;;;;5.50;3.03;;;1.60;99.90;;;;;;5068098;28;20216;-71
2022/02/14 00:59:01;;;;;;;5.90;3.92;;;1.60;99.90;;;;;;5068322;28;20208;-71
2022/02/14 01:01:30;;;;;;;4.13;3.53;;;1.60;99.70;;;;;;5068418;28;20899;-71
2022/02/14 01:03:57;;;;;;;7.47;3.72;;;1.70;99.80;;;;;;5067941;28;20457;-71
2022/02/14 01:06:25;;;;;;;4.85;3.88;;;1.70;99.70;;;;;;5068246;28;20279;-70
2022/02/14 01:08:52;;;;;;;5.20;3.83;;;1.80;99.80;;;;;;5067620;28;20253;-71
2022/02/14 01:11:19;;;;;;;4.68;4.18;;;1.90;99.30;;;;;;5068498;28;20216;-71
2022/02/14 01:13:46;;;;;;;5.63;4.10;;;1.90;99.20;;;;;;5067389;28;20201;-70
2022/02/14 01:16:12;;;;;;;6.65;3.88;;;2.00;99.50;;;;;;5068056;28;20556;-70
2022/02/14 01:18:40;;;;;;;4.60;3.70;;;2.00;99.30;;;;;;5067679;28;20604;-70
2022/02/14 01:21:07;;;;;;;5.18;3.50;;;2.10;99.40;;;;;;5068114;28;20212;-71
2022/02/14 01:23:34;;;;;;;4.38;3.38;;;2.10;99.60;;;;;;5067413;28;20208;-70
2022/02/14 01:26:00;;;;;;;5.65;4.88;;;2.10;99.70;;;;;;5068173;28;20224;-70
2022/02/14 01:28:27;;;;;;;3.97;3.50;;;2.00;99.90;;;;;;5068018;28;20213;-71
2022/02/14 01:30:54;;;;;;;3.85;3.25;;;2.00;99.70;;;;;;5067619;28;20205;-70
2022/02/14 01:33:21;;;;;;;5.45;3.78;;;2.00;99.90;;;;;;5067504;28;20219;-70
2022/02/14 01:35:50;;;;;;;5.28;3.70;;;2.00;99.90;;;;;;5067804;28;20231;-71
2022/02/14 01:38:17;;;;;;;4.55;3.28;;;2.00;99.90;;;;;;5068097;28;21217;-71
2022/02/14 01:40:44;;;;;;;5.93;4.20;;;2.00;99.70;;;;;;5067242;28;20211;-71
2022/02/14 01:43:15;;;;;;;5.07;3.25;;;2.10;99.00;;;;;;5067336;28;20211;-71
2022/02/14 01:45:42;;;;;;;3.88;3.20;;;2.10;99.20;;;;;;5067657;28;20340;-71
2022/02/14 01:48:09;;;;;;;4.47;3.40;;;2.20;98.30;;;;;;5068139;28;20255;-72
2022/02/14 01:50:36;;;;;;;3.65;2.95;;;2.20;97.80;;;;;;5069678;28;20469;-71
2022/02/14 01:53:05;;;;;;;3.88;2.90;;;2.40;97.30;;;;;;5069117;28;20216;-71
2022/02/14 01:55:33;;;;;;;3.60;3.25;;;2.50;97.10;;;;;;5070024;28;20234;-71
2022/02/14 01:58:01;;;;;;;3.85;3.03;;;2.60;97.20;;;;;;5071768;28;20222;-71
2022/02/14 02:00:29;;;;;;;4.93;2.97;;;2.70;97.00;;;;;;5069129;28;20262;-71
2022/02/14 02:02:56;;;;;;;3.10;2.80;;;2.70;96.20;;;;;;5067371;28;20207;-71
2022/02/14 02:05:25;;;;;;;3.72;3.13;;;2.80;96.30;;;;;;5067886;28;20211;-71
2022/02/14 02:07:52;;;;;;;4.80;3.10;;;2.90;96.10;;;;;;5067608;28;20255;-72
2022/02/14 02:10:21;;;;;;;4.95;3.50;;;2.90;95.90;;;;;;5067762;28;20192;-71
2022/02/14 02:12:49;;;;;;;3.83;3.13;;;3.00;95.70;;;;;;5066823;28;20196;-72
2022/02/14 02:15:16;;;;;;;3.83;2.92;;;3.00;95.40;;;;;;5066797;28;20620;-71
2022/02/14 02:17:43;;;;;;;6.20;3.05;;;3.10;96.20;;;;;;5067335;28;20196;-71
2022/02/14 02:20:13;;;;;;;5.22;3.20;;;3.00;96.00;;;;;;5069772;28;20212;-71
2022/02/14 02:22:40;;;;;;;4.45;3.63;;;2.90;98.10;;;;;;5068138;28;20268;-71
2022/02/14 02:25:09;;;;;;;5.65;3.17;;;2.80;98.60;;;;;;5104831;22;20223;-92
2022/02/14 02:27:36;;;;;;;7.10;3.15;;;2.70;98.80;;;;;;5080264;28;20246;-93
2022/02/14 02:30:06;;;;;;;7.85;3.30;;;2.70;97.40;;;;;;5096457;28;20199;-93
2022/02/14 02:32:34;;;;;;;3.38;2.70;;;2.80;97.60;;;;;;5095504;28;20199;-93
2022/02/14 02:35:01;;;;;;;4.95;2.78;;;2.80;97.60;;;;;;5095894;28;20237;-93
2022/02/14 02:37:29;;;;;;;2.90;2.60;;;2.80;96.70;;;;;;5096520;28;20203;-91
2022/02/14 02:39:56;;;;;;;4.38;2.45;;;2.80;96.40;;;;;;5095460;28;20212;-92
2022/02/14 02:42:25;;;;;;;3.97;2.80;;;2.90;95.70;;;;;;5094721;28;20218;-92
2022/02/14 02:44:52;;;;;;;3.15;2.78;;;3.00;95.40;;;;;;5095221;28;20255;-92
2022/02/14 02:47:21;;;;;;;4.45;2.40;;;3.10;94.80;;;;;;5094994;28;20233;-92
2022/02/14 02:49:48;;;;;;;3.28;2.70;;;3.30;93.20;;;;;;5095922;28;20279;-92
2022/02/14 02:52:17;;;;;;;3.40;2.60;;;3.60;92.10;;;;;;5095681;28;20207;-93
2022/02/14 02:54:44;;;;;;;4.47;2.40;;;3.80;91.60;;;;;;5096389;28;20254;-92
2022/02/14 02:57:12;;;;;;;2.50;2.30;;;4.00;91.50;;;;;;5096821;28;20200;-91
2022/02/14 02:59:40;;;;;;;3.15;2.00;;;4.10;90.90;;;;;;5107224;28;20207;-91
2022/02/14 03:02:08;;;;;;;2.65;2.30;;;4.20;91.00;;;;;;5116852;28;20267;-91
2022/02/14 03:04:35;;;;;;;3.30;2.30;;;4.20;90.70;;;;;;5116061;28;20275;-91
2022/02/14 03:07:03;;;;;;;2.92;2.63;;;4.20;90.60;;;;;;5116212;28;20230;-91
2022/02/14 03:09:30;;;;;;;4.32;2.30;;;4.20;90.30;;;;;;5097063;28;20199;-91
2022/02/14 03:11:57;;;;;;;2.70;2.40;;;4.30;90.00;;;;;;5097556;28;20226;-92
2022/02/14 03:14:24;;;;;;;3.60;2.50;;;4.30;90.00;;;;;;5099126;28;20234;-92
2022/02/14 03:16:53;;;;;;;6.63;2.70;;;4.30;90.10;;;;;;5113995;28;20433;-92
2022/02/14 03:19:21;;;;;;;4.22;2.70;;;4.30;90.10;;;;;;5096187;28;20207;-92
2022/02/14 03:21:48;;;;;;;2.10;1.80;;;4.30;88.90;;;;;;5094141;28;20242;-91
2022/02/14 03:24:14;;;;;;;4.93;2.88;;;4.40;89.40;;;;;;5094684;28;20258;-92
2022/02/14 03:26:41;;;;;;;2.45;1.90;;;4.30;88.60;;;;;;5094774;28;20227;-92
2022/02/14 03:29:10;;;;;;;4.75;2.25;;;4.50;87.80;;;;;;5094113;28;20199;-93
2022/02/14 03:31:37;;;;;;;2.25;2.03;;;4.50;88.60;;;;;;5097279;28;20204;-92
2022/02/14 03:34:05;;;;;;;4.13;2.15;;;4.40;88.30;;;;;;5099813;28;20235;-91
2022/02/14 03:36:32;;;;;;;4.80;3.55;;;4.40;88.70;;;;;;5098337;28;20215;-91
2022/02/14 03:38:59;;;;;;;3.97;2.90;;;4.40;88.20;;;;;;5098114;28;20204;-92
2022/02/14 03:41:26;;;;;;;6.55;2.33;;;4.40;87.90;;;;;;5098941;28;20210;-92
2022/02/14 03:43:53;;;;;;;3.70;2.40;;;4.30;88.90;;;;;;5098138;28;20231;-91
2022/02/14 03:46:19;;;;;;;3.30;2.60;;;4.30;88.80;;;;;;5098353;28;20234;-92
2022/02/14 03:48:46;;;;;;;2.70;2.10;;;4.30;87.90;;;;;;5098215;28;20224;-92
2022/02/14 03:51:14;;;;;;;2.95;2.30;;;4.30;87.70;;;;;;5098286;28;20206;-91
2022/02/14 03:53:41;;;;;;;2.90;1.90;;;4.30;87.50;;;;;;5098257;28;20219;-93
2022/02/14 03:56:08;;;;;;;2.85;1.73;;;4.40;87.00;;;;;;5098658;28;20200;-93
2022/02/14 03:58:35;;;;;;;2.42;2.22;;;4.40;86.60;;;;;;5100820;28;20202;-91
2022/02/14 04:01:02;;;;;;;1.95;1.73;;;4.50;87.00;;;;;;5118764;28;20184;-92
2022/02/14 04:03:29;;;;;;;2.28;1.95;;;4.50;86.10;;;;;;5098206;28;20220;-91
2022/02/14 04:05:56;;;;;;;3.60;2.20;;;4.50;86.20;;;;;;5097344;28;20208;-93
2022/02/14 04:08:24;;;;;;;2.83;2.30;;;4.50;85.60;;;;;;5097700;28;20216;-93
2022/02/14 04:10:53;;;;;;;2.30;2.10;;;4.50;85.20;;;;;;5098263;28;20214;-93
2022/02/14 04:13:20;;;;;;;3.15;2.17;;;4.60;84.90;;;;;;5098324;28;20294;-91
2022/02/14 04:15:47;;;;;;;3.95;2.00;;;4.60;84.90;;;;;;5100681;28;20229;-92
2022/02/14 04:18:15;;;;;;;3.05;2.17;;;4.60;84.90;;;;;;5099910;28;20207;-93
2022/02/14 04:20:42;;;;;;;3.58;2.05;;;4.60;84.90;;;;;;5097578;28;20235;-92
2022/02/14 04:23:09;;;;;;;3.42;2.03;;;4.50;85.40;;;;;;5097488;28;20200;-92
2022/02/14 04:25:37;;;;;;;2.75;2.28;;;4.50;85.00;;;;;;5101705;28;20215;-93
2022/02/14 04:28:04;;;;;;;3.40;2.60;;;4.50;84.90;;;;;;5115414;28;20589;-89
2022/02/14 04:30:31;;;;;;;3.72;2.25;;;4.50;84.80;;;;;;5119263;28;20517;-90
2022/02/14 04:33:00;;;;;;;3.70;2.70;;;4.50;84.70;;;;;;5101556;28;20196;-89
2022/02/14 04:35:28;;;;;;;2.30;1.60;;;4.40;85.50;;;;;;5098218;28;20231;-91
2022/02/14 04:37:59;;;;;;;3.78;2.50;;;4.40;85.60;;;;;;5099048;28;20180;-89
2022/02/14 04:40:26;;;;;;;2.75;2.47;;;4.30;86.80;;;;;;5094299;28;20231;-92
2022/02/14 04:42:55;;;;;;;4.13;2.40;;;4.30;86.20;;;;;;5084832;28;20287;-93
2022/02/14 04:45:22;;;;;;;3.58;2.20;;;4.20;86.00;;;;;;5082302;28;20224;-92
2022/02/14 04:47:48;;;;;;;3.00;2.22;;;4.20;86.00;;;;;;5078652;28;20217;-92
2022/02/14 04:50:15;;;;;;;2.80;1.90;;;4.10;85.90;;;;;;5081138;28;20200;-92
2022/02/14 04:52:45;;;;;;;2.10;1.90;;;4.10;86.90;;;;;;5095345;28;20210;-92
2022/02/14 04:55:12;;;;;;;2.25;1.90;;;4.00;86.50;;;;;;5097732;28;20250;-90
2022/02/14 04:57:39;;;;;;;2.25;2.05;;;4.00;86.50;;;;;;5097399;28;20180;-90
2022/02/14 05:00:11;;;;;;;2.70;2.13;;;4.00;86.00;;;;;;5095849;28;20189;-92
2022/02/14 05:02:38;;;;;;;3.38;1.92;;;4.10;86.20;;;;;;5095873;28;20192;-90
2022/02/14 05:05:06;;;;;;;3.10;2.20;;;4.10;85.90;;;;;;5098270;28;20223;-91
2022/02/14 05:07:33;;;;;;;3.08;2.20;;;4.10;86.90;;;;;;5098543;28;20247;-90
2022/02/14 05:09:59;;;;;;;3.33;2.50;;;4.10;87.00;;;;;;5098176;28;20189;-90
2022/02/14 05:12:26;;;;;;;3.90;2.40;;;4.00;87.70;;;;;;5096869;28;20195;-93
2022/02/14 05:14:53;;;;;;;3.95;2.67;;;3.90;87.30;;;;;;5086356;28;20212;-92
2022/02/14 05:17:21;;;;;;;2.78;2.17;;;3.90;88.20;;;;;;5086930;28;20188;-93
2022/02/14 05:19:48;;;;;;;4.13;2.35;;;3.90;87.30;;;;;;5094456;28;20280;-91
2022/02/14 05:22:15;;;;;;;2.80;2.60;;;3.90;87.30;;;;;;5092795;28;20452;-91
2022/02/14 05:24:42;;;;;;;3.90;2.58;;;3.90;86.90;;;;;;5094186;28;20474;-92
2022/02/14 05:27:09;;;;;;;2.95;2.10;;;4.00;86.70;;;;;;5088088;28;20200;-91
2022/02/14 05:29:35;;;;;;;2.85;2.17;;;4.00;86.50;;;;;;5094164;28;20180;-91
2022/02/14 05:32:02;;;;;;;2.78;2.30;;;4.10;86.20;;;;;;5096935;28;20190;-90
2022/02/14 05:34:31;;;;;;;2.35;1.90;;;4.10;86.80;;;;;;5086697;28;20204;-92
2022/02/14 05:36:57;;;;;;;3.15;2.10;;;4.20;88.00;;;;;;5084136;28;20204;-92
2022/02/14 05:39:24;;;;;;;4.93;2.50;;;4.20;86.30;;;;;;5079992;28;20201;-92
2022/02/14 05:41:51;;;;;;;2.83;2.20;;;4.20;86.90;;;;;;5078347;28;20208;-92
2022/02/14 05:44:18;;;;;;;2.55;1.90;;;4.20;85.70;;;;;;5078059;28;20224;-92
2022/02/14 05:46:45;;;;;;;5.78;2.38;;;4.30;85.90;;;;;;5078921;28;20337;-92
2022/02/14 05:49:12;;;;;;;2.53;2.30;;;4.30;86.30;;;;;;5078206;28;20235;-92
2022/02/14 05:51:40;;;;;;;3.15;2.45;;;4.30;85.80;;;;;;5077013;28;20208;-92
2022/02/14 05:54:07;;;;;;;2.97;2.60;;;4.30;85.90;;;;;;5075431;28;20221;-92
2022/02/14 05:56:40;;;;;;;2.60;2.40;;;4.40;85.40;;;;;;5076014;28;20200;-92
2022/02/14 05:59:07;;;;;;;2.95;2.60;;;4.40;85.90;;;;;;5077190;28;20715;-92
2022/02/14 06:01:33;;;;;;;3.63;2.08;;;4.40;85.50;;;;;;5076901;28;20211;-91
2022/02/14 06:04:00;;;;;;;3.38;2.40;;;4.40;85.60;;;;;;5077117;28;20220;-92
2022/02/14 06:06:27;;;;;;;2.58;2.00;;;4.40;85.80;;;;;;5078384;28;20210;-92
2022/02/14 06:08:55;;;;;;;3.47;2.30;;;4.40;85.70;;;;;;5079847;28;20220;-92
2022/02/14 06:11:22;;;;;;;2.45;2.17;;;4.50;85.50;;;;;;5082593;28;20232;-93
2022/02/14 06:13:49;;;;;;;3.00;1.95;;;4.50;85.60;;;;;;5075300;28;20235;-92
2022/02/14 06:16:16;;;;;;;3.03;2.63;;;4.50;85.70;;;;;;5076185;28;20208;-93
2022/02/14 06:18:42;;;;;;;3.80;2.60;;;4.50;85.70;;;;;;5076067;28;20201;-93
2022/02/14 06:21:09;;;;;;;5.05;2.30;;;4.50;86.00;;;;;;5077152;28;20212;-93
2022/02/14 06:23:36;;;;;;;3.85;2.15;;;4.60;86.00;;;;;;5076838;28;20259;-94
2022/02/14 06:26:05;;;;;;;5.13;2.40;;;4.60;86.20;;;;;;5076315;28;20204;-94
2022/02/14 06:28:37;;;;;;;3.00;2.00;;;4.60;86.50;;;;;;5075189;28;20330;-93
2022/02/14 06:31:04;;;;;;;1.90;1.70;;;4.60;86.60;;;;;;5076211;28;20574;-93
2022/02/14 06:33:31;;;;;;;5.50;2.60;;;4.50;86.80;;;;;;5075417;28;20590;-93
2022/02/14 06:35:58;;;;;;;3.25;2.63;;;4.50;86.90;;;;;;5076954;28;20204;-92
2022/02/14 06:38:24;;;;;;;4.68;2.47;;;4.50;86.90;;;;;;5074348;28;20207;-91
2022/02/14 06:40:51;;;;;;;5.35;2.90;;;4.50;87.30;;;;;;5075216;28;20235;-91
2022/02/14 06:43:19;;;;;;;4.97;2.58;;;4.50;87.80;;;;;;5074462;28;20743;-92
2022/02/14 06:45:46;;;;;;;7.50;2.35;;;4.50;87.50;;;;;;5074146;28;20207;-92
2022/02/14 06:48:13;;;;;;;2.53;2.25;;;4.50;87.90;;;;;;5074494;28;20227;-91
2022/02/14 06:50:40;;;;;;;4.00;2.50;;;4.50;88.00;;;;;;5074092;28;20238;-91
2022/02/14 06:53:06;;;;;;;3.40;2.78;;;4.60;88.10;;;;;;5073276;28;20200;-91
2022/02/14 06:55:33;;;;;;;3.45;2.08;;;4.60;88.30;;;;;;5074129;28;20212;-91
2022/02/14 06:58:00;;;;;;;3.97;2.40;;;4.60;88.30;;;;;;5073352;28;20208;-91
2022/02/14 07:00:28;;;;;;;2.70;2.47;;;4.60;88.50;;;;;;5074160;28;20673;-91
2022/02/14 07:02:56;;;;;;;4.10;2.47;;;4.50;88.20;;;;;;5073402;28;20227;-91
2022/02/14 07:05:24;;;;;;;2.92;2.05;;;4.50;88.50;;;;;;5073398;28;20625;-91
2022/02/14 07:07:52;;;;;;;2.53;2.10;;;4.50;88.40;;;;;;5077422;28;20216;-92
2022/02/14 07:10:20;;;;;;;4.35;2.20;;;4.50;88.30;;;;;;5077361;28;20226;-92
2022/02/14 07:12:47;;;;;;;2.95;2.40;;;4.50;88.40;;;;;;5078346;28;20211;-91
2022/02/14 07:15:15;;;;;;;3.15;2.80;;;4.60;88.60;;;;;;5078042;28;20570;-92
2022/02/14 07:17:45;;;;;;;7.75;2.90;;;4.60;88.50;;;;;;5078073;28;20661;-92
2022/02/14 07:20:13;;;;;;;5.50;2.45;;;4.60;88.50;;;;;;5080030;28;20193;-94
2022/02/14 07:22:40;;;;;;;4.88;2.70;;;4.70;88.40;;;;;;5078943;28;20211;-93
2022/02/14 07:25:07;;;;;;;5.13;3.20;;;4.80;88.60;;;;;;5078067;28;20259;-94
2022/02/14 07:27:35;;;;;;;4.05;3.05;;;4.90;88.40;;;;;;5078378;28;20645;-93
2022/02/14 07:30:02;;;;;;;5.00;2.75;;;4.90;88.50;;;;;;5078375;28;20205;-92
2022/02/14 07:32:29;;;;;;;8.35;3.03;;;5.00;88.50;;;;;;5078644;28;20292;-92
2022/02/14 07:34:58;;;;;;;3.75;2.50;;;5.10;89.00;;;;;;5078227;28;20587;-92
2022/02/14 07:37:24;;;;;;;3.33;2.47;;;5.10;88.50;;;;;;5078796;28;20226;-93
2022/02/14 07:39:52;;;;;;;2.60;2.17;;;5.30;88.20;;;;;;5080225;28;20217;-93
2022/02/14 07:42:19;;;;;;;4.93;2.88;;;5.40;88.30;;;;;;5078892;28;20640;-93
2022/02/14 07:44:46;;;;;;;5.18;2.42;;;5.70;87.80;;;;;;5078508;28;20220;-91
2022/02/14 07:47:12;;;;;;;3.85;2.70;;;6.40;86.60;;;;;;5077636;28;20609;-91
2022/02/14 07:49:39;;;;;;;5.07;3.20;;;7.40;85.40;;;;;;5077272;28;20307;-91
2022/02/14 07:52:08;;;;;;;3.40;2.38;;;8.20;83.50;;;;;;5078946;28;20227;-90
2022/02/14 07:54:36;;;;;;;2.60;2.20;;;8.80;81.60;;;;;;5085558;28;20262;-91
2022/02/14 07:57:06;;;;;;;3.45;2.28;;;9.30;81.40;;;;;;5089710;28;20203;-92
2022/02/14 07:59:37;;;;;;;6.32;2.80;;;9.90;80.20;;;;;;5081877;28;20282;-93
2022/02/14 08:02:10;;;;;;;3.70;2.53;;;10.30;78.30;;;;;;5092368;28;20200;-92
2022/02/14 08:04:36;;;;;;;3.38;2.92;;;10.80;76.30;;;;;;5091424;28;20231;-90
2022/02/14 08:07:06;;;;;;;3.17;2.30;;;11.20;77.10;;;;;;5098656;28;20273;-92
2022/02/14 08:09:34;;;;;;;2.50;2.30;;;11.60;75.40;;;;;;5103799;28;20246;-92
2022/02/14 08:12:04;;;;;;;3.60;2.75;;;11.30;75.60;;;;;;5103011;28;20206;-91
2022/02/14 08:14:32;;;;;;;3.60;3.20;;;11.60;75.70;;;;;;5107604;28;20265;-92
2022/02/14 08:16:59;;;;;;;3.03;2.13;;;12.10;75.30;;;;;;5099343;28;20223;-92
2022/02/14 08:19:26;;;;;;;3.63;2.88;;;12.40;74.10;;;;;;5085188;28;20209;-93
2022/02/14 08:21:53;;;;;;;5.38;2.88;;;12.10;73.60;;;;;;5091721;28;20215;-94
2022/02/14 08:24:20;;;;;;;3.80;2.60;;;12.20;75.20;;;;;;5092093;28;20262;-93
2022/02/14 08:26:49;;;;;;;4.70;3.27;;;13.20;73.50;;;;;;5091532;28;20207;-94
2022/02/14 08:29:16;;;;;;;3.07;2.53;;;13.60;72.60;;;;;;5092487;28;20474;-94
2022/02/14 08:31:45;;;;;;;5.33;2.73;;;14.20;72.30;;;;;;5099043;28;20457;-92
2022/02/14 08:34:13;;;;;;;4.43;3.10;;;14.20;71.20;;;;;;5068203;22;20523;-74
2022/02/14 08:36:40;;;;;;;4.57;2.83;;;13.80;71.40;;;;;;5050412;28;20476;-75
2022/02/14 08:39:07;;;;;;;4.10;3.50;;;13.90;72.00;;;;;;5050838;28;20452;-73
2022/02/14 08:41:34;;;;;;;5.10;3.40;;;14.20;71.40;;;;;;5050648;28;20547;-73
2022/02/14 08:44:02;;;;;;;2.90;2.40;;;15.00;71.30;;;;;;5051141;28;20474;-74
2022/02/14 08:46:29;;;;;;;8.10;3.00;;;15.90;69.30;;;;;;5050701;28;20482;-73
2022/02/14 08:48:56;;;;;;;2.60;2.40;;;16.50;68.40;;;;;;5051137;28;20506;-73
2022/02/14 08:51:24;;;;;;;3.50;2.60;;;16.40;67.50;;;;;;5050981;28;20494;-74
2022/02/14 08:53:51;;;;;;;3.57;3.07;;;15.70;68.50;;;;;;5049474;28;20459;-74
2022/02/14 08:56:18;;;;;;;4.90;3.20;;;15.10;69.20;;;;;;5049334;28;20509;-73
2022/02/14 08:58:47;;;;;;;4.50;2.50;;;13.70;71.10;;;;;;5051745;28;20448;-75
2022/02/14 09:01:18;;;;;;;3.70;2.60;;;13.80;72.10;;;;;;5050634;28;20463;-74
2022/02/14 09:03:46;;;;;;;4.57;2.80;;;14.90;70.90;;;;;;5050954;28;20465;-74
2022/02/14 09:06:13;;;;;;;6.60;2.53;;;15.10;69.70;;;;;;5049247;28;20479;-74
2022/02/14 09:08:40;;;;;;;3.67;2.50;;;16.10;69.60;;;;;;5050621;28;20936;-75
2022/02/14 09:11:07;;;;;;;2.70;2.50;;;17.30;68.30;;;;;;5051784;28;20459;-73
2022/02/14 09:13:37;;;;;;;4.30;2.60;;;18.40;66.90;;;;;;5051032;28;21030;-74
2022/02/14 09:16:07;;;;;;;4.30;2.73;;;19.00;65.70;;;;;;5050206;28;20501;-74
2022/02/14 09:18:36;;;;;;;4.73;3.23;;;19.30;64.70;;;;;;5050122;28;20550;-74
2022/02/14 09:21:04;;;;;;;3.43;2.73;;;18.70;65.30;;;;;;5051105;28;20966;-73
2022/02/14 09:23:31;;;;;;;4.23;3.10;;;18.40;66.40;;;;;;5050547;28;20835;-75
2022/02/14 09:25:58;;;;;;;3.90;3.00;;;19.20;66.40;;;;;;5050895;28;20484;-74
2022/02/14 09:28:26;;;;;;;5.57;2.77;;;18.90;66.90;;;;;;5050384;28;20471;-74
2022/02/14 09:30:53;;;;;;;4.00;2.53;;;17.60;66.30;;;;;;5049116;28;20490;-73
2022/02/14 09:33:20;;;;;;;6.40;2.80;;;17.00;67.10;;;;;;5050129;28;20471;-72
2022/02/14 09:35:48;;;;;;;4.80;3.17;;;15.80;68.50;;;;;;5052550;28;20479;-75
2022/02/14 09:38:15;;;;;;;4.37;2.93;;;15.30;70.60;;;;;;5051142;28;20470;-73
2022/02/14 09:40:43;;;;;;;3.53;3.00;;;15.10;71.10;;;;;;5050866;28;20846;-74
2022/02/14 09:43:11;;;;;;;4.10;2.87;;;15.10;71.80;;;;;;5061799;28;20462;-73
2022/02/14 09:45:38;;;;;;;4.20;2.63;;;16.30;69.80;;;;;;5069193;28;20517;-75
2022/02/14 09:48:07;;;;;;;7.40;3.30;;;17.20;68.70;;;;;;5070597;28;20830;-74
2022/02/14 09:50:36;;;;;;;2.93;2.40;;;16.60;69.70;;;;;;5068795;28;20489;-74
2022/02/14 09:53:06;;;;;;;4.83;2.70;;;16.30;70.50;;;;;;5067446;28;20455;-74
2022/02/14 09:55:34;;;;;;;6.60;2.67;;;15.30;71.70;;;;;;5068474;28;21005;-74
2022/02/14 09:58:00;;;;;;;4.00;2.70;;;14.80;73.50;;;;;;5069933;28;20458;-73
2022/02/14 10:00:27;;;;;;;2.90;2.37;;;13.70;74.30;;;;;;5069338;28;20459;-73
2022/02/14 10:03:13;;;;;;;3.40;2.53;;;12.80;76.50;;;;;;5069044;28;20745;-74
2022/02/14 10:05:42;;;;;;;3.90;2.80;;;11.90;79.20;;;;;;5069192;28;20481;-73
2022/02/14 10:08:10;;;;;;;4.30;2.88;;;11.80;79.90;;;;;;5068426;28;20840;-73
2022/02/14 10:10:39;;;;;;;5.53;2.58;;;11.70;80.60;;;;;;5069683;28;20707;-74
2022/02/14 10:13:06;;;;;;;3.15;2.30;;;11.80;80.40;;;;;;5069373;28;20574;-74
2022/02/14 10:15:34;;;;;;;4.20;2.15;;;11.60;81.10;;;;;;5068507;28;20250;-75
2022/02/14 10:18:01;;;;;;;3.20;2.60;;;11.90;81.50;;;;;;5069806;28;20671;-73
2022/02/14 10:20:31;;;;;;;4.80;3.13;;;12.20;81.20;;;;;;5069048;28;20228;-73
2022/02/14 10:23:00;;;;;;;2.63;2.42;;;12.10;82.40;;;;;;5068459;28;20207;-74
2022/02/14 10:25:31;;;;;;;4.70;2.72;;;12.00;82.10;;;;;;5069343;28;20262;-75
2022/02/14 10:28:19;;;;;;;4.20;3.60;;;12.20;82.70;;;;;;5069071;28;20200;-73
2022/02/14 10:30:57;;;;;;;4.70;3.72;;;12.30;82.50;;;;;;5067439;28;20252;-74
2022/02/14 10:33:24;;;;;;;3.53;2.65;;;12.10;83.40;;;;;;5068882;28;20589;-74
2022/02/14 10:35:51;;;;;;;4.93;3.00;;;11.90;85.00;;;;;;5068698;28;20477;-74
2022/02/14 10:38:22;;;;;;;4.60;3.17;;;11.90;85.40;;;;;;5069133;28;20204;-74
2022/02/14 10:40:50;;;;;;;2.25;2.05;;;11.80;86.50;;;;;;5068440;28;20274;-74
2022/02/14 10:43:26;;;;;;;6.78;2.97;;;11.80;86.30;;;;;;5068154;28;20197;-74
2022/02/14 10:45:54;;;;;;;3.20;2.58;;;12.00;86.00;;;;;;5068193;28;20216;-75
2022/02/14 10:48:34;;;;;;;3.83;2.60;;;11.80;86.20;;;;;;5069657;28;20204;-74
2022/02/14 10:51:01;;;;;;;6.25;1.95;;;11.90;87.10;;;;;;5067644;28;20224;-74
2022/02/14 10:53:27;;;;;;;5.05;2.45;;;12.10;86.80;;;;;;5067832;28;20582;-73
2022/02/14 10:55:58;;;;;;;5.05;2.30;;;12.20;86.50;;;;;;5068505;28;20227;-75
2022/02/14 10:58:28;;;;;;;3.20;2.40;;;12.60;86.00;;;;;;5067988;28;20196;-73
2022/02/14 11:00:57;;;;;;;4.20;2.33;;;12.40;86.90;;;;;;5067569;28;20470;-73
2022/02/14 11:03:25;;;;;;;4.53;2.22;;;12.30;87.10;;;;;;5070190;28;20458;-73
2022/02/14 11:05:53;;;;;;;3.93;1.87;;;12.20;87.50;;;;;;5070524;28;20592;-72
2022/02/14 11:08:22;;;;;;;5.45;3.45;;;12.30;87.80;;;;;;5070480;28;20474;-72
2022/02/14 11:10:50;;;;;;;2.20;2.00;;;12.60;87.40;;;;;;5070771;28;20227;-74
2022/02/14 11:13:24;;;;;;;2.67;1.63;;;12.20;88.80;;;;;;5072019;28;20204;-74
2022/02/14 11:15:55;;;;;;;5.18;3.05;;;12.10;88.90;;;;;;5069893;28;20231;-73
2022/02/14 11:18:27;;;;;;;4.18;2.20;;;12.00;89.60;;;;;;5071921;28;20226;-73
2022/02/14 11:20:54;;;;;;;4.30;2.20;;;12.10;90.00;;;;;;5067484;28;20196;-73
2022/02/14 11:23:23;;;;;;;3.97;2.00;;;12.00;90.30;;;;;;5068174;28;20200;-74
2022/02/14 11:25:57;;;;;;;9.82;2.88;;;12.00;90.60;;;;;;5067783;28;20228;-74
2022/02/14 11:28:29;;;;;;;5.85;2.55;;;12.00;90.90;;;;;;5049547;28;20208;-74
2022/02/14 11:31:08;;;;;;;3.45;2.00;;;12.00;91.10;;;;;;5047746;28;20264;-73
2022/02/14 11:33:35;;;;;;;3.33;2.25;;;12.10;91.10;;;;;;5046721;28;20213;-73
2022/02/14 11:36:05;;;;;;;5.47;2.47;;;12.00;91.20;;;;;;5047174;28;20711;-74
2022/02/14 11:38:42;;;;;;;3.10;2.25;;;11.80;91.60;;;;;;5047761;28;20201;-73
2022/02/14 11:41:27;;;;;;;5.50;2.15;;;11.80;92.10;;;;;;5048719;28;20204;-73
2022/02/14 11:43:56;;;;;;;3.03;2.05;;;11.70;92.20;;;;;;5049499;28;20201;-73
2022/02/14 11:46:27;;;;;;;2.53;1.77;;;11.60;92.00;;;;;;5067525;28;20227;-73
2022/02/14 11:49:14;;;;;;;3.13;2.28;;;11.60;91.80;;;;;;5067656;28;20207;-73
2022/02/14 11:51:43;;;;;;;2.60;1.92;;;11.80;91.80;;;;;;5068068;28;20208;-73
2022/02/14 11:54:28;;;;;;;3.95;2.47;;;11.90;91.60;;;;;;5071297;28;20200;-73
2022/02/14 11:56:56;;;;;;;5.22;2.47;;;11.80;91.90;;;;;;5069455;28;20228;-72
2022/02/14 11:59:30;;;;;;;4.05;2.15;;;11.60;91.80;;;;;;5071753;28;20208;-71
2022/02/14 12:02:02;;;;;;;2.17;1.75;;;11.60;92.00;;;;;;5072475;28;20211;-73
2022/02/14 12:04:53;;;;;;;3.30;2.00;;;11.60;92.30;;;;;;5072399;28;20200;-71
2022/02/14 12:07:27;;;;;;;2.40;1.88;;;11.60;92.60;;;;;;5054826;28;20236;-72
2022/02/14 12:10:15;;;;;;;3.90;1.90;;;11.60;92.80;;;;;;5070763;28;20220;-73
2022/02/14 12:13:09;;;;;;;2.28;2.08;;;11.80;92.80;;;;;;5061254;28;20815;-73
2022/02/14 12:21:22;;;;;;;2.97;2.67;;;12.20;92.90;;;;;;5068425;28;20207;-73
2022/02/14 12:23:51;;;;;;;2.85;1.90;;;12.20;92.60;;;;;;5068475;28;20201;-74
2022/02/14 12:26:20;;;;;;;3.55;1.80;;;12.30;92.80;;;;;;5067970;28;20220;-74
2022/02/14 12:29:31;;;;;;;12.00;2.50;;;12.40;93.10;;;;;;5069504;28;20249;-73
2022/02/14 12:31:44;;;;;;;5.07;1.85;;;12.40;93.20;;;;;;5069014;28;20864;-73
2022/02/14 12:34:11;;;;;;;2.80;1.77;;;12.30;93.20;;;;;;5067431;28;20641;-73
2022/02/14 12:36:38;;;;;;;2.72;1.80;;;12.20;93.60;;;;;;5068474;28;20219;-74
2022/02/14 12:39:05;;;;;;;5.88;2.05;;;12.20;93.80;;;;;;5070791;28;20578;-73
2022/02/14 12:41:33;;;;;;;1.95;1.50;;;12.10;93.70;;;;;;5069707;28;20200;-73
2022/02/14 12:44:01;;;;;;;3.28;2.28;;;11.80;94.20;;;;;;5068232;28;20285;-73
2022/02/14 12:46:30;;;;;;;2.00;1.60;;;11.70;94.40;;;;;;5068100;28;20286;-73
2022/02/14 12:49:03;;;;;;;2.58;1.85;;;12.10;94.00;;;;;;5070987;28;20219;-73
2022/02/14 12:51:31;;;;;;;4.88;1.90;;;12.40;93.70;;;;;;5067988;28;20220;-73
2022/02/14 12:54:00;;;;;;;3.80;2.10;;;12.50;93.60;;;;;;5069451;28;20204;-74
2022/02/14 12:56:28;;;;;;;3.30;1.80;;;12.50;93.50;;;;;;5069480;28;20229;-73
2022/02/14 12:58:56;;;;;;;5.13;2.10;;;12.40;93.60;;;;;;5088526;28;20204;-73
2022/02/14 13:01:25;;;;;;;3.95;1.95;;;12.10;93.70;;;;;;5092506;28;20196;-73
2022/02/14 13:03:56;;;;;;;3.72;1.90;;;12.10;93.80;;;;;;5089216;28;20714;-73